Time;durP1;ratioP1;P1;durP2;ratioP2;P2;SDS_P1;SDS_P2;PMS_P1;PMS_P2;Temp;Humidity;BMP_temperature;BMP_pressure;BME280_temperature;BME280_humidity;BME280_pressure;Samples;Min_cycle;Max_cycle;Signal;HPM_P1;HPM_P2
2022/12/18 00:02:04;;;;;;;;;5.00;5.00;;;;;19.32;54.68;102357.94;105837;1294;18574;-66
2022/12/18 00:04:32;;;;;;;;;4.00;4.00;;;;;19.32;54.68;102356.73;105876;1295;18655;-65
2022/12/18 00:07:00;;;;;;;;;7.50;4.50;;;;;19.31;54.47;102357.30;105880;1279;23607;-66
2022/12/18 00:09:27;;;;;;;;;4.50;4.00;;;;;19.32;54.66;102362.48;105896;1286;18366;-65
2022/12/18 00:11:55;;;;;;;;;4.50;4.50;;;;;19.32;54.58;102368.45;105876;1280;18482;-66
2022/12/18 00:14:22;;;;;;;;;4.00;4.00;;;;;19.32;54.53;102371.95;105937;1294;22371;-66
2022/12/18 00:16:49;;;;;;;;;5.00;5.00;;;;;19.32;54.58;102373.75;105856;1295;19625;-67
2022/12/18 00:19:17;;;;;;;;;5.00;5.00;;;;;19.32;54.36;102376.13;105611;1278;354248;-66
2022/12/18 00:21:44;;;;;;;;;6.00;4.50;;;;;19.31;54.46;102376.55;105865;1294;19465;-66
2022/12/18 00:24:12;;;;;;;;;5.00;5.00;;;;;19.31;54.28;102384.85;105819;1283;20889;-67
2022/12/18 00:26:39;;;;;;;;;4.00;4.00;;;;;19.31;54.43;102388.31;105916;1280;20181;-67
2022/12/18 00:29:06;;;;;;;;;4.50;4.50;;;;;19.31;54.33;102387.98;105838;1294;19285;-66
2022/12/18 00:31:34;;;;;;;;;5.00;4.00;;;;;19.32;54.17;102390.26;105781;1294;18427;-66
2022/12/18 00:34:01;;;;;;;;;4.00;4.00;;;;;19.32;54.35;102395.16;105743;1280;18554;-66
2022/12/18 00:36:28;;;;;;;;;4.00;4.00;;;;;19.32;54.25;102398.37;105795;1279;20704;-66
2022/12/18 00:38:56;;;;;;;;;4.00;4.00;;;;;19.32;54.06;102401.26;105744;1294;18509;-66
2022/12/18 00:44:04;;;;;;;;;7.00;4.50;;;;;19.33;54.40;102411.20;105799;1294;19194;-65
2022/12/18 00:46:32;;;;;;;;;4.00;4.00;;;;;19.32;54.05;102412.17;105751;1287;22022;-64
2022/12/18 00:48:59;;;;;;;;;4.00;4.00;;;;;19.32;54.21;102411.58;105787;1276;18494;-65
2022/12/18 00:51:26;;;;;;;;;4.50;4.50;;;;;19.32;54.28;102414.16;105883;1294;19465;-65
2022/12/18 00:53:54;;;;;;;;;4.50;4.50;;;;;19.32;54.07;102414.14;105883;1294;18422;-66
2022/12/18 00:56:21;;;;;;;;;4.00;4.00;;;;;19.32;54.08;102414.36;105902;1294;18504;-65
2022/12/18 00:58:48;;;;;;;;;4.00;4.00;;;;;19.30;54.18;102419.20;105790;1293;19307;-65
2022/12/18 01:01:16;;;;;;;;;5.00;4.50;;;;;19.30;54.24;102419.06;105834;1295;18482;-65
2022/12/18 01:03:44;;;;;;;;;4.00;4.00;;;;;19.30;54.03;102423.91;105861;1278;19985;-65
2022/12/18 01:06:12;;;;;;;;;5.00;4.00;;;;;19.29;54.19;102423.48;105745;1294;19272;-66
2022/12/18 01:08:40;;;;;;;;;4.00;4.00;;;;;19.29;53.94;102432.00;105830;1279;18535;-66
2022/12/18 01:11:08;;;;;;;;;4.00;4.00;;;;;19.28;54.13;102434.23;105823;1294;20245;-66
2022/12/18 01:13:35;;;;;;;;;4.00;2.00;;;;;19.28;54.02;102432.98;105780;1286;21838;-65
2022/12/18 01:16:02;;;;;;;;;7.00;4.00;;;;;19.28;54.08;102435.16;105787;1280;18589;-66
2022/12/18 01:18:30;;;;;;;;;6.33;5.00;;;;;19.28;53.93;102437.89;105837;1292;18897;-66
2022/12/18 01:20:58;;;;;;;;;4.00;4.00;;;;;19.28;53.98;102439.86;105717;1295;22708;-66
2022/12/18 01:23:26;;;;;;;;;4.00;4.00;;;;;19.28;53.91;102438.75;105816;1296;20197;-66
2022/12/18 01:25:53;;;;;;;;;4.50;4.00;;;;;19.28;53.82;102438.83;105773;1272;22529;-66
2022/12/18 01:28:20;;;;;;;;;4.00;4.00;;;;;19.26;53.79;102443.45;105784;1291;19310;-67
2022/12/18 01:30:48;;;;;;;;;4.00;4.00;;;;;19.26;53.80;102441.27;105778;1294;18437;-66
2022/12/18 01:33:15;;;;;;;;;4.00;4.00;;;;;19.27;54.01;102448.51;105768;1281;22067;-66
2022/12/18 01:35:43;;;;;;;;;4.00;4.00;;;;;19.26;53.85;102449.08;105776;1294;20774;-67
2022/12/18 01:38:10;;;;;;;;;4.00;4.00;;;;;19.26;53.79;102446.73;105822;1286;21514;-66
2022/12/18 01:40:38;;;;;;;;;5.00;5.00;;;;;19.26;53.85;102443.27;105746;1294;18550;-67
2022/12/18 01:43:05;;;;;;;;;4.00;2.00;;;;;19.27;53.99;102448.34;105804;1294;19271;-66
2022/12/18 01:45:33;;;;;;;;;4.00;4.00;;;;;19.26;53.83;102452.55;105871;1294;18519;-64
2022/12/18 01:48:01;;;;;;;;;2.00;2.00;;;;;19.27;53.75;102459.91;105850;1279;19862;-65
2022/12/18 01:50:28;;;;;;;;;4.00;4.00;;;;;19.26;53.67;102465.95;105919;1286;22768;-65
2022/12/18 01:52:56;;;;;;;;;4.00;4.00;;;;;19.26;53.70;102462.84;105789;1279;21303;-66
2022/12/18 01:55:23;;;;;;;;;5.00;5.00;;;;;19.27;53.68;102466.80;105793;1293;18824;-66
2022/12/18 01:57:51;;;;;;;;;5.00;4.00;;;;;19.27;53.58;102469.48;105824;1295;19962;-66
2022/12/18 02:00:18;;;;;;;;;4.00;2.00;;;;;19.28;53.60;102463.30;105724;1286;18396;-66
2022/12/18 02:02:46;;;;;;;;;5.00;5.00;;;;;19.28;53.59;102472.89;105731;1301;18608;-66
2022/12/18 02:05:30;;;;;;;;;4.00;4.00;;;;;19.26;53.63;102475.16;105941;1286;23035;-67
2022/12/18 02:07:58;;;;;;;;;4.50;4.50;;;;;19.27;53.52;102475.84;105678;1269;18400;-66
2022/12/18 02:10:25;;;;;;;;;4.00;4.00;;;;;19.27;53.65;102485.65;105859;1298;19993;-66
2022/12/18 02:12:52;;;;;;;;;5.00;5.00;;;;;19.26;53.70;102493.32;105901;1280;20656;-66
2022/12/18 02:15:20;;;;;;;;;2.00;2.00;;;;;19.26;53.79;102483.53;105728;1273;18424;-65
2022/12/18 02:17:47;;;;;;;;;;;;;;;19.27;53.71;102492.70;105824;1279;18760;-66
2022/12/18 02:20:15;;;;;;;;;4.00;4.00;;;;;19.26;53.41;102495.13;105758;1301;22907;-66
2022/12/18 02:22:42;;;;;;;;;4.50;4.50;;;;;19.25;53.43;102498.84;105738;1279;18347;-66
2022/12/18 02:25:10;;;;;;;;;2.00;2.00;;;;;19.25;53.65;102497.60;105769;1294;18419;-66
2022/12/18 02:27:37;;;;;;;;;4.00;4.00;;;;;19.24;53.65;102497.48;105813;1295;22390;-66
2022/12/18 02:30:04;;;;;;;;;4.00;4.00;;;;;19.24;53.60;102503.28;105726;1272;20161;-66
2022/12/18 02:32:32;;;;;;;;;4.00;4.00;;;;;19.24;53.38;102503.69;105764;1294;19915;-66
2022/12/18 02:35:00;;;;;;;;;4.50;2.00;;;;;19.24;53.37;102503.86;105842;1279;19504;-66
2022/12/18 02:37:27;;;;;;;;;4.00;2.67;;;;;19.23;53.68;102502.65;105788;1286;21155;-66
2022/12/18 02:39:55;;;;;;;;;5.00;4.00;;;;;19.23;53.57;102508.08;105747;1291;18779;-65
2022/12/18 02:42:22;;;;;;;;;6.00;4.00;;;;;19.23;53.41;102512.44;105734;1280;20729;-66
2022/12/18 02:44:49;;;;;;;;;5.00;4.00;;;;;19.24;53.45;102516.36;105797;1280;18801;-66
2022/12/18 02:47:17;;;;;;;;;5.00;4.50;;;;;19.23;53.50;102508.63;105749;1301;18552;-66
2022/12/18 02:49:45;;;;;;;;;2.00;2.00;;;;;19.24;53.37;102513.27;105705;1272;20716;-66
2022/12/18 02:52:12;;;;;;;;;4.00;4.00;;;;;19.23;53.39;102515.17;105787;1280;18390;-65
2022/12/18 02:54:41;;;;;;;;;5.00;5.00;;;;;19.22;53.55;102514.86;105764;1298;22327;-66
2022/12/18 02:57:08;;;;;;;;;5.00;4.00;;;;;19.22;53.40;102519.76;105764;1294;19273;-66
2022/12/18 02:59:35;;;;;;;;;4.33;4.33;;;;;19.22;53.26;102518.64;105764;1273;18515;-66
2022/12/18 03:02:03;;;;;;;;;5.00;5.00;;;;;19.21;53.30;102523.23;105744;1272;18500;-64
2022/12/18 03:04:30;;;;;;;;;5.00;4.00;;;;;19.23;53.48;102529.09;105711;1294;19288;-67
2022/12/18 03:06:58;;;;;;;;;9.00;7.00;;;;;19.23;53.37;102527.83;105808;1279;19950;-66
2022/12/18 03:09:25;;;;;;;;;4.00;4.00;;;;;19.22;53.30;102531.33;105825;1272;19229;-65
2022/12/18 03:14:38;;;;;;;;;4.00;4.00;;;;;19.23;53.38;102531.67;105755;1295;19643;-66
2022/12/18 03:17:05;;;;;;;;;4.00;4.00;;;;;19.23;53.14;102533.82;105788;1279;20490;-66
2022/12/18 03:19:34;;;;;;;;;5.00;5.00;;;;;19.23;53.36;102540.34;105770;1295;21476;-65
2022/12/18 03:22:02;;;;;;;;;4.50;4.00;;;;;19.23;53.46;102543.05;105790;1294;19715;-66
2022/12/18 03:24:29;;;;;;;;;4.00;4.00;;;;;19.24;53.12;102535.94;105790;1295;18824;-66
2022/12/18 03:26:56;;;;;;;;;4.00;4.00;;;;;19.23;53.08;102537.25;105917;1290;19346;-66
2022/12/18 03:29:24;;;;;;;;;7.00;4.00;;;;;19.23;52.99;102535.84;105728;1286;18428;-66
2022/12/18 03:31:51;;;;;;;;;4.00;4.00;;;;;19.22;52.95;102541.47;105761;1280;21712;-66
2022/12/18 03:34:19;;;;;;;;;;;;;;;19.22;53.07;102550.01;105786;1278;21081;-65
2022/12/18 03:36:46;;;;;;;;;5.00;4.00;;;;;19.22;53.37;102561.42;105695;1298;18217;-66
2022/12/18 03:39:14;;;;;;;;;4.00;4.00;;;;;19.21;53.19;102565.67;105758;1272;18481;-66
2022/12/18 03:41:41;;;;;;;;;4.00;4.00;;;;;19.21;53.13;102568.55;105799;1272;19284;-66
2022/12/18 03:44:10;;;;;;;;;4.00;4.00;;;;;19.21;53.13;102570.39;105869;1273;22538;-66
2022/12/18 03:46:37;;;;;;;;;4.00;4.00;;;;;19.22;53.04;102569.80;105852;1294;19078;-65
2022/12/18 03:49:05;;;;;;;;;4.00;4.00;;;;;19.21;53.17;102564.37;105784;1276;19263;-66
2022/12/18 03:51:32;;;;;;;;;4.00;4.00;;;;;19.21;53.27;102574.18;105763;1294;19602;-66
2022/12/18 03:54:00;;;;;;;;;4.00;4.00;;;;;19.21;52.99;102573.48;105809;1279;18512;-68
2022/12/18 03:56:27;;;;;;;;;5.00;4.00;;;;;19.20;53.00;102581.88;105900;1279;19581;-65
2022/12/18 03:58:56;;;;;;;;;5.00;4.50;;;;;19.20;53.19;102587.48;105814;1293;18379;-66
2022/12/18 04:01:23;;;;;;;;;4.00;2.00;;;;;19.20;53.05;102591.84;105859;1286;22587;-66
2022/12/18 04:03:51;;;;;;;;;4.00;4.00;;;;;19.20;53.13;102602.85;105815;1272;19245;-65
2022/12/18 04:06:18;;;;;;;;;3.00;2.00;;;;;19.20;52.92;102603.99;105776;1279;18734;-67
2022/12/18 04:08:46;;;;;;;;;4.00;4.00;;;;;19.20;53.08;102603.96;105817;1294;22520;-65
2022/12/18 04:11:13;;;;;;;;;4.00;4.00;;;;;19.20;52.89;102603.30;105801;1278;20922;-66
2022/12/18 04:13:41;;;;;;;;;4.00;4.00;;;;;19.19;53.09;102598.98;105782;1295;20251;-66
2022/12/18 04:16:09;;;;;;;;;4.50;4.50;;;;;19.20;52.96;102603.41;105820;1286;18617;-68
2022/12/18 04:18:36;;;;;;;;;4.00;4.00;;;;;19.19;52.91;102601.12;105748;1280;23544;-66
2022/12/18 04:21:04;;;;;;;;;4.00;4.00;;;;;19.20;53.25;102601.46;105769;1295;18806;-66
2022/12/18 04:23:32;;;;;;;;;2.00;2.00;;;;;19.20;52.95;102598.52;105756;1280;20258;-66
2022/12/18 04:25:59;;;;;;;;;4.00;4.00;;;;;19.20;52.87;102601.98;105777;1294;19194;-65
2022/12/18 04:28:27;;;;;;;;;4.50;4.50;;;;;19.20;53.09;102596.94;105780;1280;19592;-67
2022/12/18 04:30:54;;;;;;;;;5.00;5.00;;;;;19.20;52.88;102600.20;105731;1286;22802;-64
2022/12/18 04:33:22;;;;;;;;;5.00;5.00;;;;;19.20;52.96;102603.09;105783;1279;19398;-66
2022/12/18 04:35:49;;;;;;;;;2.00;2.00;;;;;19.20;52.99;102605.42;105773;1286;22948;-67
2022/12/18 04:38:17;;;;;;;;;2.00;2.00;;;;;19.20;52.91;102611.25;105780;1272;22217;-65
2022/12/18 04:40:45;;;;;;;;;5.00;5.00;;;;;19.19;53.03;102612.91;105761;1280;19362;-65
2022/12/18 04:43:12;;;;;;;;;;;;;;;19.20;52.95;102612.71;105791;1273;18635;-65
2022/12/18 04:45:40;;;;;;;;;4.00;4.00;;;;;19.19;52.68;102617.66;105776;1286;18273;-65
2022/12/18 04:48:08;;;;;;;;;3.33;3.33;;;;;19.18;52.82;102619.39;105828;1273;21096;-65
2022/12/18 04:50:36;;;;;;;;;4.00;4.00;;;;;19.18;52.65;102620.45;105884;1295;18751;-65
2022/12/18 04:53:04;;;;;;;;;6.00;4.50;;;;;19.19;52.70;102628.73;105765;1273;18548;-66
2022/12/18 04:55:31;;;;;;;;;2.00;2.00;;;;;19.18;52.82;102626.11;105766;1286;22738;-66
2022/12/18 04:57:58;;;;;;;;;2.00;2.00;;;;;19.18;52.58;102631.36;105754;1278;18680;-66
2022/12/18 05:00:26;;;;;;;;;4.50;4.50;;;;;19.18;52.65;102623.94;105742;1279;21591;-66
2022/12/18 05:02:54;;;;;;;;;4.00;4.00;;;;;19.18;52.56;102623.91;105791;1295;19288;-67
2022/12/18 05:05:21;;;;;;;;;4.00;4.00;;;;;19.18;52.59;102627.17;105783;1294;18518;-68
2022/12/18 05:07:49;;;;;;;;;5.00;4.00;;;;;19.18;52.72;102627.89;105829;1279;18709;-65
2022/12/18 05:10:16;;;;;;;;;4.50;4.00;;;;;19.18;52.77;102636.98;105850;1272;19449;-65
2022/12/18 05:15:37;;;;;;;;;4.00;3.00;;;;;19.23;52.52;102637.48;103027;1329;22153;-66
2022/12/18 05:18:05;;;;;;;;;5.00;5.00;;;;;19.27;52.31;102643.90;104686;1295;19941;-68
2022/12/18 05:20:32;;;;;;;;;6.00;4.50;;;;;19.23;52.30;102644.21;104734;1311;19307;-66
2022/12/18 05:23:00;;;;;;;;;7.00;4.50;;;;;19.21;52.61;102650.13;104719;1293;17807;-66
2022/12/18 05:25:27;;;;;;;;;4.00;4.00;;;;;19.19;52.51;102652.42;104579;1295;18745;-65
2022/12/18 05:27:55;;;;;;;;;4.00;4.00;;;;;19.18;52.62;102651.27;104696;1313;19171;-65
2022/12/18 05:30:23;;;;;;;;;4.00;4.00;;;;;19.19;52.41;102658.07;104712;1284;155923;-67
2022/12/18 05:32:51;;;;;;;;;5.00;4.50;;;;;19.19;52.61;102660.04;104843;1300;21279;-65
2022/12/18 05:35:18;;;;;;;;;4.00;3.00;;;;;19.18;52.27;102660.86;104825;1310;18144;-65
2022/12/18 05:37:46;;;;;;;;;6.00;5.50;;;;;19.18;52.39;102665.58;104794;1285;23007;-65
2022/12/18 05:40:13;;;;;;;;;4.00;4.00;;;;;19.18;52.36;102674.63;104799;1300;18504;-65
2022/12/18 05:42:41;;;;;;;;;4.00;2.00;;;;;19.18;52.59;102677.74;104825;1310;19655;-65
2022/12/18 05:45:09;;;;;;;;;4.00;4.00;;;;;19.19;52.51;102681.48;104794;1299;23170;-67
2022/12/18 05:47:36;;;;;;;;;5.00;5.00;;;;;19.19;52.56;102680.04;104854;1307;18442;-67
2022/12/18 05:50:04;;;;;;;;;4.00;3.00;;;;;19.18;52.45;102684.06;105101;1304;18194;-66
2022/12/18 05:52:32;;;;;;;;;2.00;2.00;;;;;19.18;52.37;102686.05;105175;1286;17797;-67
2022/12/18 05:55:00;;;;;;;;;4.00;2.00;;;;;19.19;52.54;102690.32;105187;1278;18486;-66
2022/12/18 05:57:28;;;;;;;;;4.00;4.00;;;;;19.19;52.16;102695.09;105070;1294;18090;-66
2022/12/18 05:59:55;;;;;;;;;4.00;4.00;;;;;19.18;52.23;102700.20;105124;1282;18909;-66
2022/12/18 06:02:23;;;;;;;;;4.33;4.33;;;;;19.17;52.48;102699.88;105110;1278;19090;-66
2022/12/18 06:04:50;;;;;;;;;4.00;2.00;;;;;19.17;52.17;102698.50;105124;1286;19857;-65
2022/12/18 06:07:18;;;;;;;;;4.00;4.00;;;;;19.16;52.43;102707.58;105211;1295;17771;-65
2022/12/18 06:09:45;;;;;;;;;4.00;4.00;;;;;19.16;52.32;102713.04;105059;1295;19161;-67
2022/12/18 06:12:13;;;;;;;;;4.00;4.00;;;;;19.15;52.09;102716.91;105071;1279;18116;-65
2022/12/18 06:14:40;;;;;;;;;7.00;5.00;;;;;19.15;52.20;102718.02;105146;1296;21483;-64
2022/12/18 06:17:08;;;;;;;;;4.00;4.00;;;;;19.14;52.35;102712.98;105110;1304;18461;-67
2022/12/18 06:19:35;;;;;;;;;5.00;5.00;;;;;19.14;52.02;102714.43;105294;1292;18057;-64
2022/12/18 06:22:05;;;;;;;;;4.00;4.00;;;;;19.14;52.15;102719.73;105244;1286;17793;-64
2022/12/18 06:24:32;;;;;;;;;4.00;4.00;;;;;19.14;52.02;102726.45;105209;1286;18535;-65
2022/12/18 06:27:00;;;;;;;;;4.00;4.00;;;;;19.14;52.06;102730.41;105237;1298;18106;-65
2022/12/18 06:29:27;;;;;;;;;4.00;4.00;;;;;19.14;52.33;102737.33;105261;1286;17873;-65
2022/12/18 06:31:55;;;;;;;;;4.00;4.00;;;;;19.14;51.99;102740.24;105262;1301;19068;-66
2022/12/18 06:34:22;;;;;;;;;4.00;4.00;;;;;19.14;52.13;102744.55;105259;1292;22142;-66
2022/12/18 06:36:50;;;;;;;;;4.00;4.00;;;;;19.13;52.03;102737.35;105255;1301;17971;-66
2022/12/18 06:39:17;;;;;;;;;4.00;4.00;;;;;19.13;51.94;102742.82;105247;1293;22242;-66
2022/12/18 06:41:45;;;;;;;;;5.00;4.00;;;;;19.13;52.07;102743.90;105301;1301;19922;-66
2022/12/18 06:44:12;;;;;;;;;4.00;4.00;;;;;19.13;52.03;102757.84;105264;1286;17902;-66
2022/12/18 06:46:42;;;;;;;;;2.50;2.50;;;;;19.13;52.11;102766.20;105263;1301;18404;-64
2022/12/18 06:49:09;;;;;;;;;4.00;4.00;;;;;19.14;52.00;102769.23;105210;1286;22641;-64
2022/12/18 06:51:37;;;;;;;;;;;;;;;19.13;51.99;102777.78;105252;1285;18431;-64
2022/12/18 06:54:04;;;;;;;;;2.00;2.00;;;;;19.14;52.11;102781.34;105271;1285;18466;-67
2022/12/18 06:56:32;;;;;;;;;4.00;4.00;;;;;19.15;52.42;102784.56;105416;1299;17771;-66
2022/12/18 06:59:00;;;;;;;;;4.00;4.00;;;;;19.15;52.19;102784.73;105406;1294;21623;-65
2022/12/18 07:01:27;;;;;;;;;4.00;4.00;;;;;19.15;51.91;102792.48;105357;1276;18447;-65
2022/12/18 07:03:55;;;;;;;;;4.00;4.00;;;;;19.16;52.22;102791.00;105414;1283;21625;-65
2022/12/18 07:06:22;;;;;;;;;4.00;4.00;;;;;19.16;51.91;102793.30;105418;1283;17784;-65
2022/12/18 07:08:50;;;;;;;;;4.00;2.00;;;;;19.18;51.97;102796.79;105453;1283;18435;-65
2022/12/18 07:11:18;;;;;;;;;4.00;4.00;;;;;19.19;51.82;102800.15;105374;1284;21144;-68
2022/12/18 07:13:45;;;;;;;;;4.00;4.00;;;;;19.22;51.97;102806.69;105366;1275;20393;-65
2022/12/18 07:16:13;;;;;;;;;4.50;4.00;;;;;19.22;51.97;102807.92;105392;1276;18436;-66
2022/12/18 07:18:41;;;;;;;;;5.00;4.00;;;;;19.23;52.32;102812.20;105378;1299;18084;-66
2022/12/18 07:21:08;;;;;;;;;4.00;4.00;;;;;19.21;52.13;102816.72;105376;1297;19174;-68
2022/12/18 07:23:36;;;;;;;;;5.00;5.00;;;;;19.16;51.96;102826.67;105429;1282;21806;-65
2022/12/18 07:26:04;;;;;;;;;10.00;7.00;;;;;19.10;50.76;102829.17;105409;1275;21714;-67
2022/12/18 07:28:32;;;;;;;;;8.00;7.50;;;;;19.09;50.31;102832.50;105335;1282;20306;-67
2022/12/18 07:31:00;;;;;;;;;;;;;;;19.12;50.46;102830.10;105449;1290;22567;-68
2022/12/18 07:33:27;;;;;;;;;9.50;7.00;;;;;19.15;50.35;102831.14;105354;1301;18238;-66
2022/12/18 07:35:55;;;;;;;;;4.00;4.00;;;;;19.15;50.56;102836.01;105454;1275;17785;-64
2022/12/18 07:38:22;;;;;;;;;8.00;7.00;;;;;19.16;50.72;102843.74;105407;1275;23696;-67
2022/12/18 07:40:50;;;;;;;;;6.00;4.50;;;;;19.17;50.72;102846.02;105448;1299;18166;-66
2022/12/18 07:43:17;;;;;;;;;7.00;5.00;;;;;19.19;51.04;102843.33;105376;1275;17988;-66
2022/12/18 07:45:45;;;;;;;;;4.00;4.00;;;;;19.20;51.18;102842.54;105438;1283;18424;-67
2022/12/18 07:48:13;;;;;;;;;4.00;4.00;;;;;19.20;51.45;102841.06;105425;1283;19486;-65
2022/12/18 07:50:40;;;;;;;;;5.00;4.00;;;;;19.22;51.84;102846.00;105413;1285;18074;-66
2022/12/18 07:53:08;;;;;;;;;;;;;;;19.23;51.77;102852.28;105385;1275;18470;-66
2022/12/18 07:55:35;;;;;;;;;4.00;4.00;;;;;19.23;51.99;102850.83;105362;1279;21070;-68
2022/12/18 07:58:03;;;;;;;;;5.00;4.50;;;;;19.23;52.03;102851.56;105240;1283;22120;-66
2022/12/18 08:00:30;;;;;;;;;7.00;4.00;;;;;19.24;51.89;102853.45;105275;1275;18467;-66
2022/12/18 08:02:58;;;;;;;;;5.00;4.00;;;;;19.25;51.89;102859.21;105390;1291;18194;-66
2022/12/18 08:05:26;;;;;;;;;;;;;;;19.24;52.27;102860.34;105404;1289;19921;-67
2022/12/18 08:07:53;;;;;;;;;5.00;5.00;;;;;19.24;52.52;102864.69;105439;1278;18440;-67
2022/12/18 08:10:21;;;;;;;;;8.00;5.00;;;;;19.23;51.94;102866.60;105399;1275;19016;-68
2022/12/18 08:12:48;;;;;;;;;8.00;5.00;;;;;19.22;52.16;102870.99;105375;1300;17762;-67
2022/12/18 08:15:16;;;;;;;;;6.00;4.00;;;;;19.22;52.56;102880.10;105332;1292;18643;-67
2022/12/18 08:17:44;;;;;;;;;4.00;4.00;;;;;19.20;52.49;102878.90;105410;1285;20352;-67
2022/12/18 08:20:13;;;;;;;;;7.00;5.00;;;;;19.20;52.56;102885.48;105454;1298;18030;-67
2022/12/18 08:22:41;;;;;;;;;4.33;4.33;;;;;19.19;52.79;102885.55;105397;1299;18396;-67
2022/12/18 08:25:08;;;;;;;;;5.00;5.00;;;;;19.18;52.87;102884.51;105413;1275;19669;-66
2022/12/18 08:27:36;;;;;;;;;4.50;4.50;;;;;19.18;52.67;102882.88;105372;1284;20108;-68
2022/12/18 08:30:04;;;;;;;;;4.00;4.00;;;;;19.17;52.53;102882.21;105419;1292;19264;-67
2022/12/18 08:32:32;;;;;;;;;4.00;4.00;;;;;19.16;52.83;102882.33;105392;1290;21362;-66
2022/12/18 08:35:00;;;;;;;;;;;;;;;19.17;52.78;102890.93;105339;1275;21690;-66
2022/12/18 08:37:28;;;;;;;;;4.00;4.00;;;;;19.19;52.56;102895.73;105476;1301;18440;-66
2022/12/18 08:39:55;;;;;;;;;4.00;4.00;;;;;19.19;52.69;102909.10;105386;1283;20641;-67
2022/12/18 08:45:08;;;;;;;;;5.00;4.00;;;;;19.20;52.78;102918.30;105477;1283;19513;-66
2022/12/18 08:47:36;;;;;;;;;5.00;5.00;;;;;19.22;52.85;102925.41;105432;1292;17727;-65
2022/12/18 08:50:03;;;;;;;;;4.00;4.00;;;;;19.22;52.72;102925.95;105394;1282;17936;-66
2022/12/18 08:52:31;;;;;;;;;5.00;4.00;;;;;19.22;52.93;102929.36;105371;1275;18514;-66
2022/12/18 08:54:58;;;;;;;;;4.00;4.00;;;;;19.22;52.68;102930.11;105364;1294;18482;-69
2022/12/18 08:57:26;;;;;;;;;2.00;2.00;;;;;19.24;53.07;102928.14;105282;1276;17789;-68
2022/12/18 08:59:54;;;;;;;;;4.00;3.00;;;;;19.26;53.16;102926.15;105680;1298;20160;-65
2022/12/18 09:02:21;;;;;;;;;4.00;4.00;;;;;19.28;53.32;102925.48;105585;1292;18438;-65
2022/12/18 09:04:48;;;;;;;;;5.00;4.50;;;;;19.30;53.46;102924.42;105609;1272;17958;-66
2022/12/18 09:07:16;;;;;;;;;4.00;4.00;;;;;19.33;53.64;102917.13;105653;1289;18452;-66
2022/12/18 09:09:43;;;;;;;;;4.50;4.50;;;;;19.34;53.73;102918.53;105599;1297;18380;-63
2022/12/18 09:12:11;;;;;;;;;4.00;4.00;;;;;19.35;54.04;102920.57;105684;1279;26737;-65
2022/12/18 09:14:38;;;;;;;;;4.00;4.00;;;;;19.40;54.14;102923.69;105712;1297;18754;-67
2022/12/18 09:17:06;;;;;;;;;7.00;5.00;;;;;19.40;54.43;102929.86;105644;1279;18137;-69
2022/12/18 09:19:33;;;;;;;;;5.00;4.00;;;;;19.39;54.41;102926.29;105650;1275;17766;-67
2022/12/18 09:22:01;;;;;;;;;5.00;4.00;;;;;19.39;54.43;102927.91;105648;1279;19914;-65
2022/12/18 09:24:28;;;;;;;;;8.00;7.00;;;;;19.39;54.47;102930.10;105606;1272;18448;-66
2022/12/18 09:26:56;;;;;;;;;4.00;4.00;;;;;19.38;54.81;102932.86;105680;1297;18085;-67
2022/12/18 09:29:23;;;;;;;;;7.00;5.00;;;;;19.37;54.69;102929.65;105612;1289;19706;-67
2022/12/18 09:31:51;;;;;;;;;7.00;5.00;;;;;19.35;54.38;102926.41;105578;1272;22560;-66
2022/12/18 09:34:20;;;;;;;;;4.00;4.00;;;;;19.32;53.95;102927.73;105589;1280;17907;-65
2022/12/18 09:36:48;;;;;;;;;;;;;;;19.30;54.24;102921.19;105621;1272;21163;-66
2022/12/18 09:39:16;;;;;;;;;5.00;5.00;;;;;19.28;54.27;102924.61;105604;1279;18157;-68
2022/12/18 09:41:43;;;;;;;;;5.00;5.00;;;;;19.26;54.19;102924.52;105632;1272;18101;-67
2022/12/18 09:44:11;;;;;;;;;10.00;7.00;;;;;19.25;54.13;102920.98;105690;1298;22289;-67
2022/12/18 09:46:38;;;;;;;;;5.00;5.00;;;;;19.25;53.70;102917.00;105543;1272;18125;-66
2022/12/18 09:49:06;;;;;;;;;10.00;7.00;;;;;19.25;53.54;102921.22;105464;1272;22560;-67
2022/12/18 09:51:33;;;;;;;;;8.00;7.00;;;;;19.24;53.44;102922.69;105637;1297;18513;-65
2022/12/18 09:54:01;;;;;;;;;11.00;10.00;;;;;19.23;53.45;102915.17;105664;1289;20314;-66
2022/12/18 09:56:28;;;;;;;;;;;;;;;19.25;53.64;102914.67;105586;1279;18271;-65
2022/12/18 09:58:56;;;;;;;;;11.00;10.00;;;;;19.26;53.55;102914.02;105521;1272;21196;-64
2022/12/18 10:01:23;;;;;;;;;11.00;11.00;;;;;19.26;53.55;102914.19;105642;1279;17726;-65
2022/12/18 10:03:51;;;;;;;;;11.00;11.00;;;;;19.26;53.59;102910.59;105667;1280;22651;-66
2022/12/18 10:06:18;;;;;;;;;10.00;7.00;;;;;19.25;53.45;102903.63;105581;1272;21849;-69
2022/12/18 10:08:46;;;;;;;;;11.00;10.00;;;;;19.26;53.47;102900.62;105560;1291;18565;-66
2022/12/18 10:11:14;;;;;;;;;13.00;11.00;;;;;19.26;53.89;102896.79;105549;1279;19583;-65
2022/12/18 10:13:41;;;;;;;;;16.00;14.00;;;;;19.27;53.86;102896.70;105511;1279;21905;-65
2022/12/18 10:16:09;;;;;;;;;11.00;10.00;;;;;19.30;53.50;102897.09;105569;1289;22116;-64
2022/12/18 10:18:36;;;;;;;;;12.00;10.00;;;;;19.31;53.45;102902.03;105617;1297;19635;-65
2022/12/18 10:21:04;;;;;;;;;10.00;8.00;;;;;19.32;53.71;102911.58;105694;1288;19018;-65
2022/12/18 10:23:31;;;;;;;;;11.00;8.00;;;;;19.33;53.80;102919.85;105637;1280;21885;-65
2022/12/18 10:25:59;;;;;;;;;14.00;11.00;;;;;19.35;54.09;102926.41;105638;1272;18340;-64
2022/12/18 10:28:26;;;;;;;;;13.00;13.00;;;;;19.37;54.16;102926.44;105546;1272;18687;-62
2022/12/18 10:30:54;;;;;;;;;13.00;10.00;;;;;19.38;54.13;102923.09;105672;1297;18475;-63
2022/12/18 10:33:22;;;;;;;;;9.00;8.00;;;;;19.38;54.01;102925.45;105620;1279;18006;-65
2022/12/18 10:35:49;;;;;;;;;13.00;10.00;;;;;19.38;54.42;102926.73;105685;1272;20080;-64
2022/12/18 10:38:17;;;;;;;;;11.00;11.00;;;;;19.38;54.41;102928.17;105624;1279;20848;-66
2022/12/18 10:40:44;;;;;;;;;13.00;11.00;;;;;19.39;54.46;102923.94;105557;1279;17976;-65
2022/12/18 10:43:12;;;;;;;;;8.00;8.00;;;;;19.40;54.77;102921.70;105619;1280;18490;-67
2022/12/18 10:45:39;;;;;;;;;10.00;10.00;;;;;19.38;55.00;102920.17;105585;1280;20043;-66
2022/12/18 10:48:07;;;;;;;;;8.00;7.00;;;;;19.39;54.86;102922.70;105686;1289;21850;-66
2022/12/18 10:50:34;;;;;;;;;8.00;8.00;;;;;19.38;54.83;102926.86;105633;1280;18825;-67
2022/12/18 10:53:02;;;;;;;;;;;;;;;19.37;54.80;102926.61;105687;1279;19847;-61
2022/12/18 10:55:29;;;;;;;;;13.00;11.00;;;;;19.42;54.53;102931.34;105682;1279;17444;-66
2022/12/18 10:57:57;;;;;;;;;10.00;10.00;;;;;19.46;54.46;102934.27;105654;1272;18476;-66
2022/12/18 11:00:25;;;;;;;;;8.00;8.00;;;;;19.42;54.77;102927.66;105686;1279;18515;-67
2022/12/18 11:02:53;;;;;;;;;8.00;8.00;;;;;19.41;54.68;102922.34;105760;1297;17758;-66
2022/12/18 11:05:20;;;;;;;;;11.00;10.00;;;;;19.40;55.00;102922.02;105621;1295;18499;-66
2022/12/18 11:07:48;;;;;;;;;7.50;6.00;;;;;19.38;54.87;102926.70;105534;1272;20059;-66
2022/12/18 11:10:15;;;;;;;;;8.50;7.50;;;;;19.36;54.51;102937.06;105652;1272;22000;-66
2022/12/18 11:12:43;;;;;;;;;8.00;8.00;;;;;19.33;54.46;102941.62;105590;1280;18664;-66
2022/12/18 11:15:11;;;;;;;;;8.00;7.00;;;;;19.31;54.68;102942.66;105682;1298;18080;-67
2022/12/18 11:17:38;;;;;;;;;8.00;7.00;;;;;19.30;54.41;102940.41;105695;1289;19400;-64
2022/12/18 11:20:07;;;;;;;;;5.00;5.00;;;;;19.28;54.52;102937.81;105608;1279;20088;-66
2022/12/18 11:22:34;;;;;;;;;7.00;5.00;;;;;19.28;54.27;102943.11;105636;1279;18139;-66
2022/12/18 11:25:02;;;;;;;;;8.00;7.00;;;;;19.28;54.21;102949.46;105655;1280;19118;-65
2022/12/18 11:27:29;;;;;;;;;8.00;7.00;;;;;19.26;54.20;102953.54;105661;1297;24244;-66
2022/12/18 11:29:58;;;;;;;;;7.00;6.00;;;;;19.26;54.32;102957.73;105714;1297;19609;-66
2022/12/18 11:32:26;;;;;;;;;7.00;7.00;;;;;19.27;54.18;102968.92;105681;1272;19136;-65